sensor_id;sensor_type;location;lat;lon;timestamp;pressure;altitude;pressure_sealevel;temperature;humidity
48244;BME280;34053;51.088;6.572;2023-02-17T00:01:21;101514.72;;;10.10;81.22
48244;BME280;34053;51.088;6.572;2023-02-17T00:03:52;101516.44;;;10.12;81.17
48244;BME280;34053;51.088;6.572;2023-02-17T00:06:26;101507.75;;;10.08;81.46
48244;BME280;34053;51.088;6.572;2023-02-17T00:08:57;101507.75;;;10.08;81.36
48244;BME280;34053;51.088;6.572;2023-02-17T00:11:29;101511.25;;;10.07;81.39
48244;BME280;34053;51.088;6.572;2023-02-17T00:13:59;101501.56;;;10.13;81.36
48244;BME280;34053;51.088;6.572;2023-02-17T00:16:30;101504.19;;;10.13;81.81
48244;BME280;34053;51.088;6.572;2023-02-17T00:19:00;101494.63;;;10.08;81.97
48244;BME280;34053;51.088;6.572;2023-02-17T00:21:31;101497.25;;;10.08;81.93
48244;BME280;34053;51.088;6.572;2023-02-17T00:24:01;101494.63;;;10.12;82.07
48244;BME280;34053;51.088;6.572;2023-02-17T00:26:32;101504.28;;;10.08;82.32
48244;BME280;34053;51.088;6.572;2023-02-17T00:29:02;101498.13;;;10.09;82.76
48244;BME280;34053;51.088;6.572;2023-02-17T00:31:33;101492.88;;;10.11;82.71
48244;BME280;34053;51.088;6.572;2023-02-17T00:34:03;101490.31;;;10.06;82.72
48244;BME280;34053;51.088;6.572;2023-02-17T00:36:34;101490.31;;;10.06;82.93
48244;BME280;34053;51.088;6.572;2023-02-17T00:39:05;101485.84;;;10.11;82.66
48244;BME280;34053;51.088;6.572;2023-02-17T00:41:35;101485.84;;;10.11;82.65
48244;BME280;34053;51.088;6.572;2023-02-17T00:44:06;101490.28;;;10.07;83.38
48244;BME280;34053;51.088;6.572;2023-02-17T00:46:36;101489.41;;;10.05;83.38
48244;BME280;34053;51.088;6.572;2023-02-17T00:49:07;101481.56;;;10.05;83.56
48244;BME280;34053;51.088;6.572;2023-02-17T00:51:48;101485.06;;;10.06;83.77
48244;BME280;34053;51.088;6.572;2023-02-17T00:54:19;101483.22;;;10.13;83.53
48244;BME280;34053;51.088;6.572;2023-02-17T00:56:49;101474.56;;;10.04;83.83
48244;BME280;34053;51.088;6.572;2023-02-17T00:59:22;101474.53;;;10.11;83.47
48244;BME280;34053;51.088;6.572;2023-02-17T01:01:53;101467.56;;;10.06;83.55
48244;BME280;34053;51.088;6.572;2023-02-17T01:04:24;101471.03;;;10.08;83.75
48244;BME280;34053;51.088;6.572;2023-02-17T01:06:54;101466.72;;;10.06;83.77
48244;BME280;34053;51.088;6.572;2023-02-17T01:09:25;101475.44;;;10.08;83.58
48244;BME280;34053;51.088;6.572;2023-02-17T01:11:56;101473.66;;;10.08;83.66
48244;BME280;34053;51.088;6.572;2023-02-17T01:14:26;101468.41;;;10.08;83.20
48244;BME280;34053;51.088;6.572;2023-02-17T01:16:56;101462.22;;;10.13;83.43
48244;BME280;34053;51.088;6.572;2023-02-17T01:19:27;101457.88;;;10.13;83.19
48244;BME280;34053;51.088;6.572;2023-02-17T01:21:57;101456.09;;;10.15;83.04
48244;BME280;34053;51.088;6.572;2023-02-17T01:24:28;101451.75;;;10.13;83.40
48244;BME280;34053;51.088;6.572;2023-02-17T01:26:58;101453.56;;;10.07;83.94
48244;BME280;34053;51.088;6.572;2023-02-17T01:29:29;101450.94;;;10.07;83.83
48244;BME280;34053;51.088;6.572;2023-02-17T01:32:00;101448.28;;;10.09;83.83
48244;BME280;34053;51.088;6.572;2023-02-17T01:34:30;101432.56;;;10.11;84.50
48244;BME280;34053;51.088;6.572;2023-02-17T01:37:01;101438.69;;;10.10;83.97
48244;BME280;34053;51.088;6.572;2023-02-17T01:39:31;101435.16;;;10.12;84.29
48244;BME280;34053;51.088;6.572;2023-02-17T01:42:01;101434.34;;;10.08;84.29
48244;BME280;34053;51.088;6.572;2023-02-17T01:44:32;101433.44;;;10.10;84.55
48244;BME280;34053;51.088;6.572;2023-02-17T01:47:02;101431.66;;;10.13;84.65
48244;BME280;34053;51.088;6.572;2023-02-17T01:49:38;101425.53;;;10.13;84.52
48244;BME280;34053;51.088;6.572;2023-02-17T01:52:17;101424.72;;;10.07;84.66
48244;BME280;34053;51.088;6.572;2023-02-17T01:54:56;101426.44;;;10.10;84.53
48244;BME280;34053;51.088;6.572;2023-02-17T01:57:29;101423.84;;;10.08;84.64
48244;BME280;34053;51.088;6.572;2023-02-17T02:00:04;101423.81;;;10.12;84.59
48244;BME280;34053;51.088;6.572;2023-02-17T02:02:35;101421.19;;;10.10;84.69
48244;BME280;34053;51.088;6.572;2023-02-17T02:05:06;101428.16;;;10.11;85.23
48244;BME280;34053;51.088;6.572;2023-02-17T02:07:39;101415.03;;;10.13;84.69
48244;BME280;34053;51.088;6.572;2023-02-17T02:10:12;101416.81;;;10.12;85.09
48244;BME280;34053;51.088;6.572;2023-02-17T02:12:43;101402.75;;;10.18;84.79
48244;BME280;34053;51.088;6.572;2023-02-17T02:15:17;101403.66;;;10.14;85.11
48244;BME280;34053;51.088;6.572;2023-02-17T02:18:10;101400.16;;;10.15;84.69
48244;BME280;34053;51.088;6.572;2023-02-17T02:34:20;101401.88;;;10.16;84.62
48244;BME280;34053;51.088;6.572;2023-02-17T02:36:59;101399.25;;;10.16;84.77
48244;BME280;34053;51.088;6.572;2023-02-17T02:39:36;101390.50;;;10.17;84.60
48244;BME280;34053;51.088;6.572;2023-02-17T02:42:10;101393.09;;;10.20;84.25
48244;BME280;34053;51.088;6.572;2023-02-17T02:44:42;101392.28;;;10.15;85.05
48244;BME280;34053;51.088;6.572;2023-02-17T02:47:42;101394.03;;;10.16;84.97
48244;BME280;34053;51.088;6.572;2023-02-17T02:50:17;101392.28;;;10.16;84.86
48244;BME280;34053;51.088;6.572;2023-02-17T03:04:30;101385.31;;;10.14;84.67
48244;BME280;34053;51.088;6.572;2023-02-17T03:07:20;101380.88;;;10.19;84.63
48244;BME280;34053;51.088;6.572;2023-02-17T03:09:57;101380.84;;;10.20;84.63
48244;BME280;34053;51.088;6.572;2023-02-17T03:12:29;101367.75;;;10.19;84.77
48244;BME280;34053;51.088;6.572;2023-02-17T03:15:25;101367.75;;;10.19;84.25
48244;BME280;34053;51.088;6.572;2023-02-17T03:17:55;101367.75;;;10.19;84.35
48244;BME280;34053;51.088;6.572;2023-02-17T03:20:29;101360.72;;;10.22;84.37
48244;BME280;34053;51.088;6.572;2023-02-17T03:23:02;101365.06;;;10.22;84.72
48244;BME280;34053;51.088;6.572;2023-02-17T03:25:34;101358.94;;;10.23;84.23
48244;BME280;34053;51.088;6.572;2023-02-17T03:28:05;101356.25;;;10.28;83.89
48244;BME280;34053;51.088;6.572;2023-02-17T03:30:35;101357.16;;;10.25;83.91
48244;BME280;34053;51.088;6.572;2023-02-17T03:33:07;101351.88;;;10.27;84.29
48244;BME280;34053;51.088;6.572;2023-02-17T03:35:37;101351.97;;;10.22;84.05
48244;BME280;34053;51.088;6.572;2023-02-17T03:38:08;101351.09;;;10.21;84.30
48244;BME280;34053;51.088;6.572;2023-02-17T03:40:38;101348.44;;;10.23;84.33
48244;BME280;34053;51.088;6.572;2023-02-17T03:43:09;101344.94;;;10.24;83.69
48244;BME280;34053;51.088;6.572;2023-02-17T03:45:39;101348.41;;;10.26;83.96
48244;BME280;34053;51.088;6.572;2023-02-17T03:48:10;101347.53;;;10.27;83.80
48244;BME280;34053;51.088;6.572;2023-02-17T03:50:40;101356.25;;;10.28;83.75
48244;BME280;34053;51.088;6.572;2023-02-17T03:53:11;101361.50;;;10.28;83.70
48244;BME280;34053;51.088;6.572;2023-02-17T03:55:41;101360.63;;;10.27;83.51
48244;BME280;34053;51.088;6.572;2023-02-17T03:58:11;101351.81;;;10.31;83.89
48244;BME280;34053;51.088;6.572;2023-02-17T04:00:42;101336.16;;;10.28;83.43
48244;BME280;34053;51.088;6.572;2023-02-17T04:03:12;101341.41;;;10.28;83.64
48244;BME280;34053;51.088;6.572;2023-02-17T04:05:43;101353.59;;;10.29;83.81
48244;BME280;34053;51.088;6.572;2023-02-17T04:08:14;101346.66;;;10.27;83.79
48244;BME280;34053;51.088;6.572;2023-02-17T04:10:44;101351.88;;;10.28;83.71
48244;BME280;34053;51.088;6.572;2023-02-17T04:13:15;101346.66;;;10.28;83.78
48244;BME280;34053;51.088;6.572;2023-02-17T04:15:46;101357.13;;;10.28;84.05
48244;BME280;34053;51.088;6.572;2023-02-17T04:18:18;101354.47;;;10.30;83.47
48244;BME280;34053;51.088;6.572;2023-02-17T04:20:50;101365.00;;;10.27;84.03
48244;BME280;34053;51.088;6.572;2023-02-17T04:23:20;101367.63;;;10.28;83.49
48244;BME280;34053;51.088;6.572;2023-02-17T04:25:51;101365.81;;;10.30;83.86
48244;BME280;34053;51.088;6.572;2023-02-17T04:28:22;101351.88;;;10.28;83.70
48244;BME280;34053;51.088;6.572;2023-02-17T04:30:52;101354.50;;;10.28;83.72
48244;BME280;34053;51.088;6.572;2023-02-17T04:33:23;101358.91;;;10.26;83.75
48244;BME280;34053;51.088;6.572;2023-02-17T04:35:54;101355.41;;;10.27;83.79
48244;BME280;34053;51.088;6.572;2023-02-17T04:38:30;101350.16;;;10.27;83.81
48244;BME280;34053;51.088;6.572;2023-02-17T04:41:01;101360.63;;;10.27;83.57
48244;BME280;34053;51.088;6.572;2023-02-17T04:43:32;101355.41;;;10.27;83.40
48244;BME280;34053;51.088;6.572;2023-02-17T04:46:02;101356.31;;;10.24;83.77
48244;BME280;34053;51.088;6.572;2023-02-17T04:48:33;101350.13;;;10.29;83.57
48244;BME280;34053;51.088;6.572;2023-02-17T04:51:04;101355.41;;;10.27;83.40
48244;BME280;34053;51.088;6.572;2023-02-17T04:53:34;101357.97;;;10.29;83.50
48244;BME280;34053;51.088;6.572;2023-02-17T04:56:05;101362.34;;;10.30;83.49
48244;BME280;34053;51.088;6.572;2023-02-17T04:58:36;101364.00;;;10.35;83.12
48244;BME280;34053;51.088;6.572;2023-02-17T05:01:06;101366.66;;;10.32;83.28
48244;BME280;34053;51.088;6.572;2023-02-17T05:03:37;101356.22;;;10.31;83.15
48244;BME280;34053;51.088;6.572;2023-02-17T05:06:07;101352.78;;;10.27;83.20
48244;BME280;34053;51.088;6.572;2023-02-17T05:08:38;101369.41;;;10.26;83.42
48244;BME280;34053;51.088;6.572;2023-02-17T05:11:08;101364.09;;;10.29;82.87
48244;BME280;34053;51.088;6.572;2023-02-17T05:13:38;101363.19;;;10.30;83.58
48244;BME280;34053;51.088;6.572;2023-02-17T05:16:09;101359.66;;;10.34;82.73
48244;BME280;34053;51.088;6.572;2023-02-17T05:18:39;101360.63;;;10.27;83.15
48244;BME280;34053;51.088;6.572;2023-02-17T05:21:10;101352.75;;;10.29;83.14
48244;BME280;34053;51.088;6.572;2023-02-17T05:23:40;101349.22;;;10.30;83.33
48244;BME280;34053;51.088;6.572;2023-02-17T05:26:11;101353.59;;;10.29;83.53
48244;BME280;34053;51.088;6.572;2023-02-17T05:28:42;101342.28;;;10.26;83.61
48244;BME280;34053;51.088;6.572;2023-02-17T05:31:12;101341.44;;;10.25;83.50
48244;BME280;34053;51.088;6.572;2023-02-17T05:33:42;101353.56;;;10.32;83.36
48244;BME280;34053;51.088;6.572;2023-02-17T05:36:13;101333.50;;;10.30;83.13
48244;BME280;34053;51.088;6.572;2023-02-17T05:38:44;101326.44;;;10.33;83.21
48244;BME280;34053;51.088;6.572;2023-02-17T05:41:19;101332.56;;;10.32;83.06
48244;BME280;34053;51.088;6.572;2023-02-17T05:43:49;101332.53;;;10.34;83.43
48244;BME280;34053;51.088;6.572;2023-02-17T05:46:20;101322.97;;;10.33;83.25
48244;BME280;34053;51.088;6.572;2023-02-17T05:48:52;101336.94;;;10.33;83.19
48244;BME280;34053;51.088;6.572;2023-02-17T05:51:22;101328.13;;;10.36;83.47
48244;BME280;34053;51.088;6.572;2023-02-17T05:53:53;101331.66;;;10.35;83.70
48244;BME280;34053;51.088;6.572;2023-02-17T05:56:23;101325.50;;;10.37;83.43
48244;BME280;34053;51.088;6.572;2023-02-17T05:58:54;101345.66;;;10.35;83.69
48244;BME280;34053;51.088;6.572;2023-02-17T06:01:24;101343.88;;;10.37;83.53
48244;BME280;34053;51.088;6.572;2023-02-17T06:03:55;101359.63;;;10.36;83.64
48244;BME280;34053;51.088;6.572;2023-02-17T06:06:25;101353.53;;;10.35;83.91
48244;BME280;34053;51.088;6.572;2023-02-17T06:08:56;101343.88;;;10.39;83.52
48244;BME280;34053;51.088;6.572;2023-02-17T06:11:26;101344.72;;;10.39;83.47
48244;BME280;34053;51.088;6.572;2023-02-17T06:13:56;101344.75;;;10.36;84.17
48244;BME280;34053;51.088;6.572;2023-02-17T06:16:27;101347.38;;;10.36;84.13
48244;BME280;34053;51.088;6.572;2023-02-17T06:18:57;101348.28;;;10.35;84.56
48244;BME280;34053;51.088;6.572;2023-02-17T06:21:30;101349.13;;;10.39;84.38
48244;BME280;34053;51.088;6.572;2023-02-17T06:24:00;101327.22;;;10.42;84.96
48244;BME280;34053;51.088;6.572;2023-02-17T06:26:31;101334.22;;;10.39;84.57
48244;BME280;34053;51.088;6.572;2023-02-17T06:29:01;101326.34;;;10.41;84.64
48244;BME280;34053;51.088;6.572;2023-02-17T06:31:32;101333.38;;;10.39;84.97
48244;BME280;34053;51.088;6.572;2023-02-17T06:34:02;101336.84;;;10.41;85.02
48244;BME280;34053;51.088;6.572;2023-02-17T06:36:33;101342.09;;;10.41;85.12
48244;BME280;34053;51.088;6.572;2023-02-17T06:39:03;101345.63;;;10.38;85.29
48244;BME280;34053;51.088;6.572;2023-02-17T06:41:33;101340.38;;;10.40;85.31
48244;BME280;34053;51.088;6.572;2023-02-17T06:44:04;101340.31;;;10.42;85.03
48244;BME280;34053;51.088;6.572;2023-02-17T06:46:34;101343.84;;;10.41;85.36
48244;BME280;34053;51.088;6.572;2023-02-17T06:49:05;101347.34;;;10.39;85.53
48244;BME280;34053;51.088;6.572;2023-02-17T06:51:35;101352.56;;;10.43;85.82
48244;BME280;34053;51.088;6.572;2023-02-17T06:54:06;101342.09;;;10.41;85.88
48244;BME280;34053;51.088;6.572;2023-02-17T06:56:36;101338.56;;;10.42;85.77
48244;BME280;34053;51.088;6.572;2023-02-17T06:59:07;101338.56;;;10.44;85.48
48244;BME280;34053;51.088;6.572;2023-02-17T07:01:37;101339.44;;;10.43;85.54
48244;BME280;34053;51.088;6.572;2023-02-17T07:04:08;101333.31;;;10.44;85.52
48244;BME280;34053;51.088;6.572;2023-02-17T07:06:38;101343.72;;;10.47;85.90
48244;BME280;34053;51.088;6.572;2023-02-17T07:09:09;101330.69;;;10.44;85.67
48244;BME280;34053;51.088;6.572;2023-02-17T07:11:42;101330.59;;;10.48;86.32
48244;BME280;34053;51.088;6.572;2023-02-17T07:14:14;101323.63;;;10.47;86.38
48244;BME280;34053;51.088;6.572;2023-02-17T07:16:44;101337.59;;;10.48;86.54
48244;BME280;34053;51.088;6.572;2023-02-17T07:19:15;101333.22;;;10.48;86.57
48244;BME280;34053;51.088;6.572;2023-02-17T07:21:45;101332.31;;;10.51;86.33
48244;BME280;34053;51.088;6.572;2023-02-17T07:24:16;101334.09;;;10.49;86.38
48244;BME280;34053;51.088;6.572;2023-02-17T07:26:47;101334.09;;;10.49;86.65
48244;BME280;34053;51.088;6.572;2023-02-17T07:29:17;101341.03;;;10.51;86.63
48244;BME280;34053;51.088;6.572;2023-02-17T07:31:48;101340.19;;;10.51;86.61
48244;BME280;34053;51.088;6.572;2023-02-17T07:34:18;101332.22;;;10.55;86.08
48244;BME280;34053;51.088;6.572;2023-02-17T07:36:49;101339.28;;;10.52;86.71
48244;BME280;34053;51.088;6.572;2023-02-17T07:39:19;101339.22;;;10.55;86.55
48244;BME280;34053;51.088;6.572;2023-02-17T07:41:50;101347.09;;;10.57;86.56
48244;BME280;34053;51.088;6.572;2023-02-17T07:44:20;101352.34;;;10.57;86.77
48244;BME280;34053;51.088;6.572;2023-02-17T07:46:50;101342.72;;;10.55;86.62
48244;BME280;34053;51.088;6.572;2023-02-17T07:49:21;101343.50;;;10.61;86.81
48244;BME280;34053;51.088;6.572;2023-02-17T07:51:51;101346.16;;;10.59;86.79
48244;BME280;34053;51.088;6.572;2023-02-17T07:54:22;101341.72;;;10.63;86.91
48244;BME280;34053;51.088;6.572;2023-02-17T07:56:52;101342.56;;;10.63;87.11
48244;BME280;34053;51.088;6.572;2023-02-17T07:59:23;101352.19;;;10.64;87.20
48244;BME280;34053;51.088;6.572;2023-02-17T08:01:53;101349.53;;;10.67;86.60
48244;BME280;34053;51.088;6.572;2023-02-17T08:04:24;101346.81;;;10.70;86.85
48244;BME280;34053;51.088;6.572;2023-02-17T08:06:54;101350.28;;;10.73;86.89
48244;BME280;34053;51.088;6.572;2023-02-17T08:09:25;101349.38;;;10.75;86.52
48244;BME280;34053;51.088;6.572;2023-02-17T08:12:15;101360.78;;;10.73;87.12
48244;BME280;34053;51.088;6.572;2023-02-17T08:15:07;101357.22;;;10.77;87.02
48244;BME280;34053;51.088;6.572;2023-02-17T08:17:38;101350.19;;;10.79;86.63
48244;BME280;34053;51.088;6.572;2023-02-17T08:20:09;101347.53;;;10.80;86.67
48244;BME280;34053;51.088;6.572;2023-02-17T08:22:40;101344.84;;;10.83;86.84
48244;BME280;34053;51.088;6.572;2023-02-17T08:25:10;101338.75;;;10.83;87.35
48244;BME280;34053;51.088;6.572;2023-02-17T08:27:41;101344.81;;;10.86;86.38
48244;BME280;34053;51.088;6.572;2023-02-17T08:30:12;101343.91;;;10.88;86.85
48244;BME280;34053;51.088;6.572;2023-02-17T08:32:43;101337.72;;;10.90;86.35
48244;BME280;34053;51.088;6.572;2023-02-17T08:35:14;101346.50;;;10.91;86.81
48244;BME280;34053;51.088;6.572;2023-02-17T08:37:49;101346.38;;;10.95;86.51
48244;BME280;34053;51.088;6.572;2023-02-17T08:40:19;101346.38;;;10.97;86.60
48244;BME280;34053;51.088;6.572;2023-02-17T08:42:50;101352.38;;;11.02;86.05
48244;BME280;34053;51.088;6.572;2023-02-17T08:45:20;101347.19;;;11.00;86.12
48244;BME280;34053;51.088;6.572;2023-02-17T08:47:51;101350.56;;;11.06;86.38
48244;BME280;34053;51.088;6.572;2023-02-17T08:50:21;101344.47;;;11.05;86.39
48244;BME280;34053;51.088;6.572;2023-02-17T08:52:53;101356.66;;;11.08;86.43
48244;BME280;34053;51.088;6.572;2023-02-17T08:55:23;101355.69;;;11.12;86.17
48244;BME280;34053;51.088;6.572;2023-02-17T08:57:54;101351.28;;;11.15;86.00
48244;BME280;34053;51.088;6.572;2023-02-17T09:00:24;101349.47;;;11.17;86.15
48244;BME280;34053;51.088;6.572;2023-02-17T09:02:55;101348.53;;;11.20;86.05
48244;BME280;34053;51.088;6.572;2023-02-17T09:05:25;101341.50;;;11.22;86.27
48244;BME280;34053;51.088;6.572;2023-02-17T09:07:56;101345.81;;;11.26;86.18
48244;BME280;34053;51.088;6.572;2023-02-17T09:10:26;101338.72;;;11.30;85.86
48244;BME280;34053;51.088;6.572;2023-02-17T09:12:57;101342.13;;;11.35;85.33
48244;BME280;34053;51.088;6.572;2023-02-17T09:15:28;101354.31;;;11.38;85.94
48244;BME280;34053;51.088;6.572;2023-02-17T09:17:59;101341.09;;;11.44;85.28
48244;BME280;34053;51.088;6.572;2023-02-17T09:20:30;101347.16;;;11.46;85.07
48244;BME280;34053;51.088;6.572;2023-02-17T09:23:00;101347.09;;;11.49;85.13
48244;BME280;34053;51.088;6.572;2023-02-17T09:25:31;101358.38;;;11.54;84.96
48244;BME280;34053;51.088;6.572;2023-02-17T09:28:01;101346.09;;;11.55;84.55
48244;BME280;34053;51.088;6.572;2023-02-17T09:30:32;101356.53;;;11.59;84.84
48244;BME280;34053;51.088;6.572;2023-02-17T09:33:03;101359.09;;;11.61;84.73
48244;BME280;34053;51.088;6.572;2023-02-17T09:35:35;101357.28;;;11.64;84.62
48244;BME280;34053;51.088;6.572;2023-02-17T09:38:06;101358.97;;;11.69;84.64
48244;BME280;34053;51.088;6.572;2023-02-17T09:40:45;101368.53;;;11.71;84.68
48244;BME280;34053;51.088;6.572;2023-02-17T09:43:35;101371.91;;;11.76;83.91
48244;BME280;34053;51.088;6.572;2023-02-17T09:46:20;101370.13;;;11.78;84.13
48244;BME280;34053;51.088;6.572;2023-02-17T09:48:56;101355.16;;;11.82;84.30
48244;BME280;34053;51.088;6.572;2023-02-17T09:54:27;101372.47;;;11.91;83.95
48244;BME280;34053;51.088;6.572;2023-02-17T09:56:55;101360.09;;;11.96;83.82
48244;BME280;34053;51.088;6.572;2023-02-17T09:59:32;101374.97;;;11.99;83.95
48244;BME280;34053;51.088;6.572;2023-02-17T10:02:12;101371.38;;;12.03;83.23
48244;BME280;34053;51.088;6.572;2023-02-17T10:04:46;101371.31;;;12.06;83.33
48244;BME280;34053;51.088;6.572;2023-02-17T10:08:00;101360.72;;;12.09;83.05
48244;BME280;34053;51.088;6.572;2023-02-17T10:10:39;101377.34;;;12.09;83.07
48244;BME280;34053;51.088;6.572;2023-02-17T10:13:14;101369.41;;;12.11;82.67
48244;BME280;34053;51.088;6.572;2023-02-17T10:15:52;101368.50;;;12.14;82.83
48244;BME280;34053;51.088;6.572;2023-02-17T10:18:36;101371.94;;;12.16;82.98
48244;BME280;34053;51.088;6.572;2023-02-17T10:21:16;101381.41;;;12.24;82.52
48244;BME280;34053;51.088;6.572;2023-02-17T10:23:51;101370.72;;;12.31;82.06
48244;BME280;34053;51.088;6.572;2023-02-17T10:26:42;101374.03;;;12.39;81.74
48244;BME280;34053;51.088;6.572;2023-02-17T10:37:59;101363.91;;;12.59;80.95
48244;BME280;34053;51.088;6.572;2023-02-17T10:40:32;101382.16;;;12.66;80.50
48244;BME280;34053;51.088;6.572;2023-02-17T10:43:04;101375.09;;;12.68;80.27
48244;BME280;34053;51.088;6.572;2023-02-17T10:45:40;101375.09;;;12.68;80.54
48244;BME280;34053;51.088;6.572;2023-02-17T10:50:43;101401.34;;;12.71;80.34
48244;BME280;34053;51.088;6.572;2023-02-17T10:53:29;101378.59;;;12.68;80.03
48244;BME280;34053;51.088;6.572;2023-02-17T10:58:51;101382.00;;;12.72;80.46
48244;BME280;34053;51.088;6.572;2023-02-17T11:01:24;101390.78;;;12.72;80.54
48244;BME280;34053;51.088;6.572;2023-02-17T11:04:09;101383.66;;;12.76;80.13
48244;BME280;34053;51.088;6.572;2023-02-17T11:06:43;101387.19;;;12.75;80.36
48244;BME280;34053;51.088;6.572;2023-02-17T11:09:22;101382.78;;;12.75;80.53
48244;BME280;34053;51.088;6.572;2023-02-17T11:12:21;101389.75;;;12.78;80.33
48244;BME280;34053;51.088;6.572;2023-02-17T11:14:53;101382.63;;;12.82;80.32
48244;BME280;34053;51.088;6.572;2023-02-17T11:17:29;101375.50;;;12.87;79.86
48244;BME280;34053;51.088;6.572;2023-02-17T11:20:24;101378.06;;;12.88;79.58
48244;BME280;34053;51.088;6.572;2023-02-17T11:23:00;101377.94;;;12.93;79.14
48244;BME280;34053;51.088;6.572;2023-02-17T11:25:33;101390.16;;;12.96;79.10
48244;BME280;34053;51.088;6.572;2023-02-17T11:28:10;101368.97;;;13.00;79.03
48244;BME280;34053;51.088;6.572;2023-02-17T11:30:50;101368.84;;;13.05;78.28
48244;BME280;34053;51.088;6.572;2023-02-17T11:33:41;101361.78;;;13.07;78.06
48244;BME280;34053;51.088;6.572;2023-02-17T11:38:53;101354.53;;;13.15;78.39
48244;BME280;34053;51.088;6.572;2023-02-17T11:41:23;101355.31;;;13.19;77.38
48244;BME280;34053;51.088;6.572;2023-02-17T11:43:57;101333.22;;;13.23;76.50
48244;BME280;34053;51.088;6.572;2023-02-17T11:46:59;101329.66;;;13.26;77.42
48244;BME280;34053;51.088;6.572;2023-02-17T11:49:44;101322.41;;;13.34;76.40
48244;BME280;34053;51.088;6.572;2023-02-17T11:58:33;101334.53;;;13.40;76.83
48244;BME280;34053;51.088;6.572;2023-02-17T12:09:59;101340.69;;;13.40;76.40
48244;BME280;34053;51.088;6.572;2023-02-17T12:16:20;101325.72;;;13.41;76.11
48244;BME280;34053;51.088;6.572;2023-02-17T12:19:01;101324.81;;;13.42;75.67
48244;BME280;34053;51.088;6.572;2023-02-17T12:21:55;101325.50;;;13.48;75.49
48244;BME280;34053;51.088;6.572;2023-02-17T12:24:44;101321.16;;;13.47;75.39
48244;BME280;34053;51.088;6.572;2023-02-17T12:27:53;101316.78;;;13.46;75.36
48244;BME280;34053;51.088;6.572;2023-02-17T12:36:18;101316.13;;;13.68;74.68
48244;BME280;34053;51.088;6.572;2023-02-17T12:38:54;101309.09;;;13.68;73.99
48244;BME280;34053;51.088;6.572;2023-02-17T12:41:39;101312.41;;;13.75;74.57
48244;BME280;34053;51.088;6.572;2023-02-17T12:44:18;101312.31;;;13.78;75.00
48244;BME280;34053;51.088;6.572;2023-02-17T12:46:55;101316.59;;;13.81;74.37
48244;BME280;34053;51.088;6.572;2023-02-17T12:49:55;101319.22;;;13.82;74.21
48244;BME280;34053;51.088;6.572;2023-02-17T12:52:38;101318.19;;;13.87;74.01
48244;BME280;34053;51.088;6.572;2023-02-17T12:55:21;101323.25;;;13.94;73.87
48244;BME280;34053;51.088;6.572;2023-02-17T12:57:55;101323.91;;;14.01;73.37
48244;BME280;34053;51.088;6.572;2023-02-17T13:00:40;101318.53;;;14.04;73.42
48244;BME280;34053;51.088;6.572;2023-02-17T13:03:11;101315.81;;;14.07;73.59
48244;BME280;34053;51.088;6.572;2023-02-17T13:08:42;101318.31;;;14.10;73.03
48244;BME280;34053;51.088;6.572;2023-02-17T13:11:26;101302.50;;;14.10;72.75
48244;BME280;34053;51.088;6.572;2023-02-17T13:14:11;101309.47;;;14.13;73.05
48244;BME280;34053;51.088;6.572;2023-02-17T13:16:44;101298.91;;;14.13;73.46
48244;BME280;34053;51.088;6.572;2023-02-17T13:19:14;101298.03;;;14.12;72.84
48244;BME280;34053;51.088;6.572;2023-02-17T13:21:53;101305.25;;;14.07;72.09
48244;BME280;34053;51.088;6.572;2023-02-17T13:24:38;101315.88;;;14.04;72.36
48244;BME280;34053;51.088;6.572;2023-02-17T13:33:06;101348.56;;;14.00;72.80
48244;BME280;34053;51.088;6.572;2023-02-17T13:35:53;101342.47;;;13.98;72.88
48244;BME280;34053;51.088;6.572;2023-02-17T13:38:28;101347.84;;;13.95;73.28
48244;BME280;34053;51.088;6.572;2023-02-17T13:41:00;101340.84;;;13.94;72.79
48244;BME280;34053;51.088;6.572;2023-02-17T13:43:41;101348.75;;;13.94;72.67
48244;BME280;34053;51.088;6.572;2023-02-17T13:46:20;101343.75;;;13.84;72.45
48244;BME280;34053;51.088;6.572;2023-02-17T13:49:05;101354.34;;;13.83;72.62
48244;BME280;34053;51.088;6.572;2023-02-17T13:51:35;101350.03;;;13.80;72.80
48244;BME280;34053;51.088;6.572;2023-02-17T13:54:08;101356.22;;;13.79;72.89
48244;BME280;34053;51.088;6.572;2023-02-17T13:56:38;101322.03;;;13.76;73.18
48244;BME280;34053;51.088;6.572;2023-02-17T13:59:14;101342.22;;;13.77;72.90
48244;BME280;34053;51.088;6.572;2023-02-17T14:01:47;101330.88;;;13.75;73.20
48244;BME280;34053;51.088;6.572;2023-02-17T14:04:22;101334.38;;;13.76;72.82
48244;BME280;34053;51.088;6.572;2023-02-17T14:06:56;101331.66;;;13.79;73.44
48244;BME280;34053;51.088;6.572;2023-02-17T14:09:32;101345.41;;;13.89;72.78
48244;BME280;34053;51.088;6.572;2023-02-17T14:12:05;101346.31;;;13.88;72.60
48244;BME280;34053;51.088;6.572;2023-02-17T14:14:37;101344.28;;;13.96;72.18
48244;BME280;34053;51.088;6.572;2023-02-17T14:17:28;101367.75;;;14.05;72.48
48244;BME280;34053;51.088;6.572;2023-02-17T14:20:00;101362.25;;;14.13;71.07
48244;BME280;34053;51.088;6.572;2023-02-17T14:22:33;101368.31;;;14.15;70.48
48244;BME280;34053;51.088;6.572;2023-02-17T14:25:13;101369.38;;;14.09;69.66
48244;BME280;34053;51.088;6.572;2023-02-17T14:27:46;101373.03;;;14.05;67.90
48244;BME280;34053;51.088;6.572;2023-02-17T14:35:50;101391.84;;;13.94;67.86
48244;BME280;34053;51.088;6.572;2023-02-17T14:38:27;101398.94;;;13.92;67.78
48244;BME280;34053;51.088;6.572;2023-02-17T14:40:58;101403.25;;;13.95;68.80
48244;BME280;34053;51.088;6.572;2023-02-17T14:43:30;101413.97;;;13.89;67.75
48244;BME280;34053;51.088;6.572;2023-02-17T14:46:00;101418.50;;;13.85;67.48
48244;BME280;34053;51.088;6.572;2023-02-17T14:48:31;101421.19;;;13.83;67.69